| time (UTC) | temp F | wind direction | speed MPH | gust MPH | rain 1hr in | rain 24hr in | rain mn in | humidity % | barometer mb |
| 20260509223047 | 89 | 196 | 6.0 | 13.0 | 0.00 | 0.01 | 0.01 | 40 | 1009.6 |
| 20260509221538 | 89 | 122 | 6.0 | 13.0 | 0.00 | 0.01 | 0.01 | 40 | 1009.6 |
| 20260509220039 | 89 | 163 | 6.0 | 12.0 | 0.00 | 0.01 | 0.01 | 39 | 1009.5 |
| 20260509214542 | 89 | 202 | 4.0 | 10.0 | 0.00 | 0.01 | 0.01 | 38 | 1009.6 |
| 20260509213041 | 90 | 132 | 4.0 | 11.0 | 0.00 | 0.01 | 0.01 | 41 | 1009.7 |
| 20260509211537 | 89 | 214 | 3.0 | 12.0 | 0.00 | 0.01 | 0.01 | 41 | 1009.9 |
| 20260509210037 | 89 | 214 | 4.0 | 10.0 | 0.00 | 0.01 | 0.01 | 41 | 1010.2 |
| 20260509204542 | 89 | 169 | 5.0 | 10.0 | 0.00 | 0.01 | 0.01 | 43 | 1010.4 |
| 20260509203052 | 90 | 227 | 4.0 | 13.0 | 0.00 | 0.01 | 0.01 | 41 | 1010.7 |
| 20260509201539 | 89 | 232 | 4.0 | 11.0 | 0.00 | 0.01 | 0.01 | 45 | 1010.9 |
| 20260509200038 | 89 | 230 | 4.0 | 7.0 | 0.00 | 0.01 | 0.01 | 44 | 1011.0 |
| 20260509194535 | 88 | 192 | 5.0 | 11.0 | 0.00 | 0.01 | 0.01 | 46 | 1011.2 |
| 20260509193041 | 88 | 198 | 4.0 | 10.0 | 0.00 | 0.01 | 0.01 | 48 | 1011.4 |
| 20260509191544 | 87 | 109 | 3.0 | 9.0 | 0.00 | 0.01 | 0.01 | 47 | 1011.6 |
| 20260509190041 | 88 | 145 | 2.0 | 6.0 | 0.00 | 0.01 | 0.01 | 48 | 1011.6 |
| 20260509184545 | 87 | 223 | 2.0 | 7.0 | 0.00 | 0.01 | 0.01 | 46 | 1011.7 |
| 20260509183038 | 87 | 185 | 5.0 | 9.0 | 0.00 | 0.01 | 0.01 | 48 | 1011.9 |
| 20260509181603 | 85 | 336 | 2.0 | 7.0 | 0.00 | 0.01 | 0.01 | 54 | 1012.1 |
| 20260509180108 | 85 | 227 | 2.0 | 6.0 | 0.00 | 0.01 | 0.01 | 54 | 1012.4 |
| 20260509174540 | 85 | 115 | 2.0 | 7.0 | 0.00 | 0.01 | 0.01 | 54 | 1012.5 |
| 20260509173043 | 83 | 249 | 2.0 | 4.0 | 0.00 | 0.01 | 0.01 | 60 | 1012.9 |
| 20260509171545 | 83 | 226 | 1.0 | 5.0 | 0.00 | 0.01 | 0.01 | 59 | 1013.0 |
| 20260509170048 | 82 | 183 | 1.0 | 6.0 | 0.00 | 0.01 | 0.01 | 59 | 1013.2 |
| 20260509164540 | 80 | 156 | 2.0 | 5.0 | 0.00 | 0.01 | 0.01 | 65 | 1013.3 |
| 20260509163038 | 80 | 204 | 2.0 | 6.0 | 0.00 | 0.01 | 0.01 | 65 | 1013.3 |
| 20260509161545 | 79 | 318 | 1.0 | 4.0 | 0.00 | 0.01 | 0.01 | 68 | 1013.3 |
| 20260509160036 | 77 | 230 | 1.0 | 5.0 | 0.00 | 0.01 | 0.01 | 72 | 1013.3 |
| 20260509154535 | 77 | 312 | 2.0 | 5.0 | 0.00 | 0.01 | 0.01 | 72 | 1013.3 |
| 20260509153040 | 76 | 306 | 2.0 | 8.0 | 0.00 | 0.01 | 0.01 | 74 | 1013.4 |
| 20260509151540 | 75 | 215 | 3.0 | 9.0 | 0.00 | 0.01 | 0.01 | 76 | 1013.3 |
| 20260509150038 | 74 | 289 | 4.0 | 8.0 | 0.00 | 0.01 | 0.01 | 77 | 1013.3 |
| 20260509144538 | 74 | 279 | 4.0 | 9.0 | 0.00 | 0.01 | 0.01 | 78 | 1013.2 |
| 20260509143041 | 73 | 296 | 4.0 | 8.0 | 0.00 | 0.01 | 0.01 | 80 | 1013.3 |
| 20260509141542 | 73 | 270 | 3.0 | 6.0 | 0.00 | 0.01 | 0.01 | 80 | 1013.1 |
| 20260509140038 | 69 | 298 | 1.0 | 4.0 | 0.00 | 0.01 | 0.01 | 86 | 1013.3 |
| 20260509134539 | 67 | 16 | 2.0 | 4.0 | 0.00 | 0.01 | 0.01 | 86 | 1013.3 |
| 20260509133054 | 66 | 312 | 1.0 | 3.0 | 0.00 | 0.01 | 0.01 | 88 | 1013.3 |
| 20260509131536 | 66 | 345 | 0.0 | 2.0 | 0.00 | 0.01 | 0.01 | 87 | 1013.1 |
| 20260509130040 | 64 | 0 | 0.0 | 3.0 | 0.00 | 0.01 | 0.01 | 89 | 1012.9 |
| 20260509124538 | 63 | 0 | 0.0 | 2.0 | 0.00 | 0.01 | 0.01 | 90 | 1012.7 |
| 20260509123040 | 62 | 254 | 0.0 | 2.0 | 0.00 | 0.01 | 0.01 | 91 | 1012.4 |
| 20260509121543 | 62 | 0 | 0.0 | 1.0 | 0.00 | 0.01 | 0.01 | 91 | 1012.2 |
| 20260509120037 | 63 | 180 | 0.0 | 3.0 | 0.00 | 0.01 | 0.01 | 91 | 1012.1 |
| 20260509114540 | 62 | 79 | 0.0 | 3.0 | 0.00 | 0.01 | 0.01 | 92 | 1012.0 |
| 20260509113042 | 61 | 323 | 0.0 | 2.0 | 0.00 | 0.01 | 0.01 | 91 | 1011.6 |
| 20260509111539 | 61 | 0 | 0.0 | 3.0 | 0.00 | 0.01 | 0.01 | 91 | 1011.5 |
| 20260509110038 | 62 | 0 | 0.0 | 3.0 | 0.00 | 0.01 | 0.01 | 90 | 1011.3 |
| 20260509104551 | 63 | 0 | 0.0 | 3.0 | 0.00 | 0.01 | 0.01 | 90 | 1011.2 |
| 20260509103038 | 63 | 20 | 1.0 | 3.0 | 0.00 | 0.01 | 0.01 | 89 | 1011.4 |
| 20260509101540 | 64 | 324 | 1.0 | 4.0 | 0.00 | 0.01 | 0.01 | 88 | 1011.4 |
| 20260509100041 | 65 | 264 | 2.0 | 6.0 | 0.00 | 0.01 | 0.01 | 88 | 1011.6 |
| 20260509094537 | 64 | 225 | 2.0 | 4.0 | 0.00 | 0.01 | 0.01 | 89 | 1011.6 |
| 20260509093036 | 64 | 235 | 2.0 | 9.0 | 0.00 | 0.01 | 0.01 | 89 | 1011.2 |
| 20260509091540 | 64 | 186 | 3.0 | 10.0 | 0.00 | 0.01 | 0.01 | 88 | 1011.4 |
| 20260509090051 | 63 | 130 | 4.0 | 10.0 | 0.00 | 0.01 | 0.01 | 86 | 1011.9 |
| 20260509084539 | 63 | 44 | 3.0 | 8.0 | 0.00 | 0.01 | 0.01 | 84 | 1012.0 |
| 20260509083040 | 63 | 233 | 2.0 | 5.0 | 0.00 | 0.01 | 0.01 | 83 | 1011.5 |
| 20260509081550 | 63 | 169 | 6.0 | 12.0 | 0.00 | 0.01 | 0.01 | 82 | 1011.7 |
| 20260509080040 | 63 | 223 | 4.0 | 10.0 | 0.01 | 0.01 | 0.01 | 81 | 1011.9 |
| 20260509074538 | 63 | 133 | 3.0 | 7.0 | 0.01 | 0.01 | 0.01 | 79 | 1011.7 |
| 20260509073046 | 63 | 94 | 2.0 | 13.0 | 0.01 | 0.01 | 0.01 | 82 | 1012.0 |
| 20260509071545 | 64 | 111 | 6.0 | 15.0 | 0.01 | 0.01 | 0.01 | 81 | 1013.3 |
| 20260509070042 | 65 | 55 | 7.0 | 22.0 | 0.00 | 0.00 | 0.00 | 78 | 1014.3 |
| 20260509064542 | 67 | 33 | 14.0 | 33.0 | 0.00 | 0.00 | 0.00 | 82 | 1014.6 |
| 20260509063058 | 68 | 10 | 7.0 | 17.0 | 0.00 | 0.00 | 0.00 | 90 | 1014.3 |
| 20260509061601 | 68 | 25 | 5.0 | 10.0 | 0.00 | 0.00 | 0.00 | 90 | 1013.6 |
| 20260509060051 | 68 | 346 | 8.0 | 17.0 | 0.00 | 0.00 | 0.00 | 89 | 1013.4 |
| 20260509054535 | 68 | 163 | 3.0 | 6.0 | 0.00 | 0.00 | 0.00 | 89 | 1011.6 |
| 20260509053042 | 68 | 192 | 3.0 | 11.0 | 0.00 | 0.00 | 0.00 | 88 | 1011.8 |
| 20260509051541 | 69 | 174 | 5.0 | 11.0 | 0.00 | 0.00 | 0.00 | 88 | 1011.4 |
| 20260509050039 | 69 | 178 | 6.0 | 15.0 | 0.00 | 0.00 | 0.00 | 87 | 1011.1 |
| 20260509044536 | 69 | 167 | 6.0 | 14.0 | 0.00 | 0.00 | 0.00 | 87 | 1011.0 |
| 20260509043036 | 69 | 199 | 5.0 | 14.0 | 0.00 | 0.00 | 0.00 | 86 | 1011.1 |
| 20260509041535 | 70 | 202 | 6.0 | 12.0 | 0.00 | 0.00 | 0.00 | 86 | 1010.9 |
| 20260509040036 | 70 | 169 | 5.0 | 10.0 | 0.00 | 0.00 | 0.00 | 86 | 1011.0 |
| 20260509034539 | 70 | 184 | 6.0 | 14.0 | 0.00 | 0.00 | 0.00 | 85 | 1010.9 |
| 20260509033036 | 70 | 158 | 5.0 | 12.0 | 0.00 | 0.00 | 0.00 | 85 | 1010.5 |
| 20260509031538 | 70 | 153 | 5.0 | 10.0 | 0.00 | 0.00 | 0.00 | 84 | 1010.6 |
| 20260509030042 | 71 | 188 | 5.0 | 10.0 | 0.00 | 0.00 | 0.00 | 84 | 1010.5 |
| 20260509024540 | 71 | 170 | 5.0 | 11.0 | 0.00 | 0.00 | 0.00 | 83 | 1010.5 |
| 20260509023036 | 71 | 144 | 4.0 | 11.0 | 0.00 | 0.00 | 0.00 | 83 | 1010.3 |
| 20260509021537 | 72 | 185 | 5.0 | 10.0 | 0.00 | 0.00 | 0.00 | 82 | 1010.2 |
| 20260509020050 | 72 | 140 | 3.0 | 9.0 | 0.00 | 0.00 | 0.00 | 81 | 1010.3 |
| 20260509014547 | 72 | 165 | 3.0 | 8.0 | 0.00 | 0.00 | 0.00 | 80 | 1010.1 |
| 20260509013041 | 73 | 138 | 3.0 | 9.0 | 0.00 | 0.00 | 0.00 | 79 | 1010.0 |
| 20260509011537 | 74 | 142 | 3.0 | 10.0 | 0.00 | 0.00 | 0.00 | 78 | 1009.8 |
| 20260509010036 | 74 | 153 | 3.0 | 8.0 | 0.00 | 0.00 | 0.00 | 77 | 1009.5 |
| 20260509004536 | 75 | 139 | 2.0 | 8.0 | 0.00 | 0.00 | 0.00 | 76 | 1009.6 |
| 20260509003043 | 75 | 159 | 4.0 | 8.0 | 0.00 | 0.00 | 0.00 | 75 | 1009.3 |
| 20260509001539 | 76 | 142 | 4.0 | 13.0 | 0.00 | 0.00 | 0.00 | 74 | 1009.5 |
| 20260509000039 | 76 | 150 | 4.0 | 9.0 | 0.00 | 0.00 | 0.00 | 73 | 1009.5 |
| 20260508234536 | 76 | 120 | 4.0 | 9.0 | 0.00 | 0.00 | 0.00 | 73 | 1009.5 |
| 20260508233039 | 77 | 183 | 4.0 | 9.0 | 0.00 | 0.00 | 0.00 | 72 | 1009.6 |
| 20260508231539 | 77 | 160 | 4.0 | 12.0 | 0.00 | 0.00 | 0.00 | 71 | 1009.4 |
| 20260508230040 | 78 | 190 | 4.0 | 10.0 | 0.00 | 0.00 | 0.00 | 70 | 1009.4 |
| 20260508224539 | 78 | 158 | 6.0 | 12.0 | 0.00 | 0.00 | 0.00 | 70 | 1009.1 |